Startpagina
METAR-TAF:

METAR-TAF

Vliegvelden :

Indore, India

breedte: 22-43N, lengte: 075-48E, hoogte: 561 m

Actueel weer

Dit bericht is 2 uur en het 4 minuten geleden gemaakt, om 09:00 UTC
Wind 6 kt uit het westen
Temperatuur 25°C
Vochtigheid 94%
Druk 1002 hPa
Zicht: 3000 m
Verspreide wolken op 1000 ft
Verspreide wolken op 2000 ft
Gebroken wolken op 10000 ft
Heiigheid

METAR: VAID 190900Z 27006KT 3000 HZ SCT010 SCT020 BKN100 25/24 Q1002 NOSIG

Tijdstip: 16:34 (11:04 UTC)


TAF: ontbreekt

Waarnemingen en weersverwachtingen van meer dan 4000 vliegvelden (METAR en TAF).

De beschikbare stations zijn de gele en rode punten op de kaart.

Ga met uw muis naar het station om de naam te zien.

Klik dan om waarnemingen en weersverwachtingen te zien.

kaart wijzigen: klik op de groene knoppen met een zwart kruis om in te zoomen, op de groene knop met een streepje om uit te zoomen of op de groene pijlen voor aangrenzende kaarten.


METAR-TAF: